OPA Logo
 
ASOS:
At:2022.01.18 1215 UTC
Wind:140° @ 8KT
Viz: 10 mile(s)
Sky: clear
Temp: 30 F (-1 C)
DewP: 21 F (-6 C):1
RH: 26 F (-3 C)
Baro: 26 F (-3 C)
ob: KBDN 181215Z AUTO 14008KT 10SM CLR M01/M03 A3004 RMK AO2

ASOS: KRDM
At:2022.01.18 1156 UTC
Wind:
Viz: 10 mile(s)
Sky: clear
Temp: 26.1 F (-3.3 C)
DewP: 21.9 F (-5.6 C)
RH: 84%
Baro: 30.02 in.
ob: KRDM 181156Z AUTO 00000KT 10SM CLR M03/M06 A3002 RMK AO2 SLP179 T10331056 10006 21033 50001
Apache-SSL Logo

Valid HTML 4.01!

Central Oregon OPA Chapter

Chapter Officers 2006:

President
Gary E. Miller
109 NW Wilmington Ave.
Bend OR 97701
541 382-8588
gem@rellim.com

Vice President:
Open

Secretary/Treasurer:
Don Wilfong
210 SE Cessna Dr
Bend OR 97702
541 389-1456
dwnw@bendbroadband.com


Web page by: gem@rellim.com